Flight Track Log - Related Links

Times and Time Zones

All times are in EDT time to prevent confusion due to time zone crossing. See the UAL3272 flight status page for this flight to view local times or setup timezone preferences in your user account.


Time Position Orientation Groundspeed Altitude Reporting Facility
EDT Latitude Longitude Course Direction KTS MPH feet Rate Location/Type
Sat 07:04:25 AM 29.9572 -95.3392 334° Northwest 175 201 700  Level Houston Center
Sat 07:05:56 AM 29.9775 -95.2861 66° East 184 212 3,500 1,642 Climbing Houston Center
Sat 07:06:11 AM 29.9850 -95.2856 North 181 208 3,600 1,600 Climbing Houston Center
Sat 07:07:00 AM 30.2743 -95.5026 332° Northwest  Level FlightAware Approximate
Sat 07:07:11 AM 30.0442 -95.3106 340° North 215 247 5,500  Level Houston Center
Sat 07:08:00 AM 30.3703 -95.5613 334° Northwest  Level FlightAware Approximate
Sat 07:08:11 AM 30.1008 -95.3500 329° Northwest 234 269 7,500  Level Houston Center
Sat 07:09:00 AM 30.4683 -95.6157 334° Northwest  Level FlightAware Approximate
Sat 07:09:12 AM 30.1633 -95.3925 330° Northwest 252 290 9,500  Level Houston Center
Sat 07:10:12 AM 30.2275 -95.4372 329° Northwest 264 304 10,800 900 Climbing Houston Center
Sat 07:11:12 AM 30.3022 -95.4892 329° Northwest 299 344 11,300 1,140 Climbing Houston Center
Sat 07:12:13 AM 30.3822 -95.5447 329° Northwest 327 376 13,100 1,438 Climbing Houston Center
Sat 07:13:13 AM 30.4617 -95.5989 330° Northwest 331 381 14,200 1,150 Climbing Houston Center
Sat 07:14:13 AM 30.5450 -95.6575 329° Northwest 339 390 15,400 1,091 Climbing Houston Center
Sat 07:15:14 AM 30.6297 -95.7025 335° Northwest 346 398 16,400 1,041 Climbing Houston Center
Sat 07:16:14 AM 30.7242 -95.7533 335° Northwest 358 412 17,500 992 Climbing Houston Center
Sat 07:17:15 AM 30.8169 -95.8022 336° Northwest 363 418 18,400 992 Climbing Houston Center
Sat 07:18:15 AM 30.9106 -95.8519 336° Northwest 368 423 19,500 1,050 Climbing Houston Center
Sat 07:19:15 AM 31.0058 -95.9033 335° Northwest 374 430 20,500 992 Climbing Houston Center
Sat 07:20:16 AM 31.1011 -95.9550 335° Northwest 375 432 21,500 1,119 Climbing Houston Center
Sat 07:21:13 AM 31.2139 -96.0019 340° North 372 428 22,700 1,128 Climbing Fort Worth Center
Sat 07:22:13 AM 31.3186 -96.0442 341° North 394 453 23,700 1,150 Climbing Fort Worth Center
Sat 07:23:13 AM 31.4233 -96.0817 343° North 389 448 25,000 1,250 Climbing Fort Worth Center
Sat 07:24:13 AM 31.5139 -96.1364 333° Northwest 376 433 26,200 1,050 Climbing Fort Worth Center
Sat 07:25:13 AM 31.5894 -96.1964 326° Northwest 370 426 27,100 950 Climbing Fort Worth Center
Sat 07:26:13 AM 31.6736 -96.2661 325° Northwest 369 425 28,100 1,000 Climbing Fort Worth Center
Sat 07:27:13 AM 31.7556 -96.3336 325° Northwest 364 419 29,100 1,000 Climbing Fort Worth Center
Sat 07:28:13 AM 31.8419 -96.4033 326° Northwest 365 420 30,100 1,050 Climbing Fort Worth Center
Sat 07:29:13 AM 31.9281 -96.4733 325° Northwest 365 420 31,200 1,050 Climbing Fort Worth Center
Sat 07:30:13 AM 32.0119 -96.5436 325° Northwest 370 426 32,200 1,000 Climbing Fort Worth Center
Sat 07:31:13 AM 32.0981 -96.6139 325° Northwest 375 432 33,200 1,250 Climbing Fort Worth Center
Sat 07:32:13 AM 32.1842 -96.6844 325° Northwest 375 432 34,700 1,400 Climbing Fort Worth Center
Sat 07:33:13 AM 32.2681 -96.7575 324° Northwest 363 418 36,000 650 Climbing Fort Worth Center
Sat 07:34:13 AM 32.3414 -96.8183 325° Northwest 352 405 36,000  Level Fort Worth Center
Sat 07:35:13 AM 32.4356 -96.8939 326° Northwest 367 422 36,000  Level Fort Worth Center
Sat 07:36:13 AM 32.5172 -96.9600 326° Northwest 378 435 36,000  Level Fort Worth Center
Sat 07:37:13 AM 32.6200 -97.0433 326° Northwest 397 457 36,000  Level Fort Worth Center
Sat 07:38:13 AM 32.7056 -97.1147 325° Northwest 411 473 36,000  Level Fort Worth Center
Sat 07:39:13 AM 32.8103 -97.2008 325° Northwest 417 480 36,000  Level Fort Worth Center
Sat 07:40:13 AM 32.8958 -97.2747 324° Northwest 417 480 36,000  Level Fort Worth Center
Sat 07:41:13 AM 33.0025 -97.3614 326° Northwest 417 480 36,000  Level Fort Worth Center
Sat 07:42:13 AM 33.0858 -97.4308 325° Northwest 417 480 36,000  Level Fort Worth Center
Sat 07:43:13 AM 33.1903 -97.5203 324° Northwest 417 480 36,000  Level Fort Worth Center
Sat 07:44:13 AM 33.2736 -97.5947 323° Northwest 417 480 36,000  Level Fort Worth Center
Sat 07:45:13 AM 33.3694 -97.6747 325° Northwest 417 480 36,000  Level Fort Worth Center
Sat 07:46:13 AM 33.4736 -97.7622 325° Northwest 422 486 36,000  Level Fort Worth Center
Sat 07:47:13 AM 33.5717 -97.8447 325° Northwest 429 494 36,000  Level Fort Worth Center
Sat 07:48:13 AM 33.6653 -97.9250 324° Northwest 424 488 36,000  Level Fort Worth Center
Sat 07:49:13 AM 33.7503 -97.9981 324° Northwest 424 488 36,000  Level Fort Worth Center
Sat 07:50:13 AM 33.8461 -98.0786 325° Northwest 419 482 36,000  Level Fort Worth Center
Sat 07:51:13 AM 33.9456 -98.1672 324° Northwest 411 473 36,000  Level Fort Worth Center
Sat 07:52:13 AM 34.0392 -98.2431 326° Northwest 406 467 36,000  Level Fort Worth Center
Sat 07:53:13 AM 34.1303 -98.3344 320° Northwest 406 467 36,000  Level Fort Worth Center
Sat 07:54:13 AM 34.2214 -98.4106 325° Northwest 411 473 36,000  Level Fort Worth Center
Sat 07:55:13 AM 34.3167 -98.4947 324° Northwest 417 480 36,000  Level Fort Worth Center
Sat 07:56:13 AM 34.4100 -98.5764 324° Northwest 417 480 36,000  Level Fort Worth Center
Sat 07:57:13 AM 34.5031 -98.6583 324° Northwest 417 480 36,000  Level Fort Worth Center
Sat 07:58:13 AM 34.6003 -98.7431 324° Northwest 422 486 36,000  Level Fort Worth Center
Sat 07:59:13 AM 34.6975 -98.8228 326° Northwest 422 486 36,000  Level Fort Worth Center
Sat 08:00:13 AM 34.7925 -98.9078 324° Northwest 427 491 36,000  Level Fort Worth Center
Sat 08:01:13 AM 34.8872 -98.9881 325° Northwest 427 491 36,000  Level Fort Worth Center
Sat 08:02:13 AM 34.9781 -99.0708 323° Northwest 421 484 36,000  Level Fort Worth Center
Sat 08:03:13 AM 35.0728 -99.1564 324° Northwest 421 484 36,000  Level Fort Worth Center
Sat 08:04:52 AM 35.2286 -99.2942 324° Northwest 427 491 36,000  Level Kansas City Center
Sat 08:05:52 AM 35.3272 -99.3828 324° Northwest 434 499 36,000  Level Kansas City Center
Sat 08:06:53 AM 35.4253 -99.4711 324° Northwest 435 501 36,000  Level Kansas City Center
Sat 08:07:54 AM 35.5211 -99.5581 324° Northwest 428 493 36,000  Level Kansas City Center
Sat 08:08:55 AM 35.6178 -99.6450 324° Northwest 426 490 36,000  Level Kansas City Center
Sat 08:09:56 AM 35.7136 -99.7328 323° Northwest 426 490 36,000  Level Kansas City Center
Sat 08:10:56 AM 35.8089 -99.8194 324° Northwest 423 487 36,000  Level Kansas City Center
Sat 08:11:57 AM 35.9025 -99.9047 324° Northwest 418 481 36,000  Level Kansas City Center
Sat 08:12:58 AM 35.9953 -99.9908 323° Northwest 415 478 36,000  Level Kansas City Center
Sat 08:13:59 AM 36.0900 -100.0758 324° Northwest 416 479 36,000  Level Kansas City Center
Sat 08:15:00 AM 36.1844 -100.1636 323° Northwest 419 482 36,000  Level Kansas City Center
Sat 08:16:00 AM 36.2800 -100.2514 323° Northwest 424 488 36,000  Level Kansas City Center
Sat 08:17:01 AM 36.3753 -100.3408 323° Northwest 426 490 36,000  Level Kansas City Center
Sat 08:18:02 AM 36.4672 -100.4247 324° Northwest 426 490 36,000  Level Kansas City Center
Sat 08:19:03 AM 36.5733 -100.5256 323° Northwest 429 494 36,000  Level Kansas City Center
Sat 08:20:04 AM 36.6661 -100.6108 324° Northwest 431 496 36,000  Level Kansas City Center
Sat 08:21:04 AM 36.7581 -100.6981 323° Northwest 433 498 36,000  Level Kansas City Center
Sat 08:22:05 AM 36.8650 -100.8006 323° Northwest 432 497 36,000  Level Kansas City Center
Sat 08:23:06 AM 36.9572 -100.8864 323° Northwest 431 496 36,000  Level Kansas City Center
Sat 08:24:07 AM 37.0475 -100.9756 322° Northwest 430 495 36,000  Level Kansas City Center
Sat 08:25:08 AM 37.1350 -101.1025 311° West 429 494 36,000  Level Kansas City Center
Sat 08:26:09 AM 37.2100 -101.2122 311° West 431 496 36,000  Level Kansas City Center
Sat 08:27:10 AM 37.2850 -101.3214 311° West 429 494 36,000  Level Kansas City Center
Sat 08:28:10 AM 37.3711 -101.4489 310° West 427 491 36,000  Level Kansas City Center
Sat 08:29:11 AM 37.4450 -101.5581 310° West 427 491 36,000  Level Kansas City Center
Sat 08:30:12 AM 37.5183 -101.6669 310° West 425 489 36,000  Level Kansas City Center
Sat 08:31:13 AM 37.6039 -101.7944 310° West 424 488 36,000  Level Kansas City Center
Sat 08:32:14 AM 37.6772 -101.9033 310° West 424 488 36,000  Level Kansas City Center
Sat 08:33:15 AM 37.7494 -102.0119 310° West 422 486 36,000  Level Kansas City Center
Sat 08:34:05 AM 37.8219 -102.1208 310° West 422 486 36,000  Level Denver Center
Sat 08:35:06 AM 37.8981 -102.2242 313° West 419 482 36,000  Level Denver Center
Sat 08:36:06 AM 37.9756 -102.3283 313° West 422 486 36,000  Level Denver Center
Sat 08:37:07 AM 38.0528 -102.4333 313° West 424 488 36,000  Level Denver Center
Sat 08:38:08 AM 38.1425 -102.5572 313° West 427 491 36,000 -50 Level Denver Center
Sat 08:39:08 AM 38.2197 -102.6628 313° West 426 490 35,900 -595 Descending Denver Center
Sat 08:40:09 AM 38.2942 -102.7647 313° West 410 472 34,800 -1,190 Descending Denver Center
Sat 08:41:09 AM 38.3803 -102.8847 312° West 410 472 33,500 -1,240 Descending Denver Center
Sat 08:42:10 AM 38.4544 -102.9858 313° West 409 471 32,300 -744 Descending Denver Center
Sat 08:43:10 AM 38.5286 -103.0886 313° West 410 472 32,000 -135 Descending Denver Center
Sat 08:44:23 AM 38.6147 -103.2097 312° West 419 482 32,000 -627 Level Denver Center
Sat 08:45:24 AM 38.7017 -103.3325 312° West 418 481 30,600 -1,835 Descending Denver Center
Sat 08:46:24 AM 38.7864 -103.4503 313° West 407 468 28,300 -2,182 Descending Denver Center
Sat 08:47:25 AM 38.8622 -103.5567 312° West 417 480 26,200 -1,967 Descending Denver Center
Sat 08:48:26 AM 38.9367 -103.6622 312° West 417 480 24,300 -2,083 Descending Denver Center
Sat 08:49:26 AM 39.0181 -103.7778 312° West 389 448 22,000 -2,132 Descending Denver Center
Sat 08:50:27 AM 39.0858 -103.8742 312° West 379 436 20,000 -2,033 Descending Denver Center
Sat 08:51:27 AM 39.1506 -103.9700 311° West 375 432 17,900 -1,438 Descending Denver Center
Sat 08:52:28 AM 39.2214 -104.0681 313° West 356 410 17,100 -541 Descending Denver Center
Sat 08:53:29 AM 39.2669 -104.1544 304° West 321 369 16,800 -942 Descending Denver Center
Sat 08:54:29 AM 39.2906 -104.2619 286° West 289 333 15,200 -1,339 Descending Denver Center
Sat 08:55:30 AM 39.3108 -104.3550 286° West 275 316 14,100 -595 Descending Denver Center
Sat 08:56:30 AM 39.3264 -104.4206 287° West 256 295 14,000 -843 Descending Denver Center
Sat 08:57:31 AM 39.3539 -104.5242 289° West 250 288 12,400 -1,377 Descending Denver Center
Sat 08:58:32 AM 39.4000 -104.5861 314° West 243 280 11,200 -1,140 Descending Denver Center
Sat 08:59:32 AM 39.4575 -104.6286 330° Northwest 240 276 10,100 -545 Descending Denver Center
Sat 09:00:33 AM 39.5150 -104.6672 333° Northwest 234 269 10,100  Level Denver Center
Sat 09:01:33 AM 39.5711 -104.6639 North 236 272 10,100 -545 Level Denver Center
Sat 09:02:34 AM 39.6514 -104.6628 North 235 270 9,000 -1,131 Descending Denver Center
Sat 09:03:35 AM 39.7128 -104.6622 360° North 224 258 7,800 -1,180 Descending Denver Center

Login

Don't have an account? Register now (free) for customized features, flight alerts, and more!